createdAt,value
2018-08-16T00:02:16.988Z,3.20
2018-08-16T00:04:44.505Z,2.90
2018-08-16T00:07:12.131Z,3.43
2018-08-16T00:09:39.641Z,2.90
2018-08-16T00:12:07.161Z,3.27
2018-08-16T00:14:34.647Z,2.90
2018-08-16T00:17:02.191Z,3.23
2018-08-16T00:19:29.689Z,3.27
2018-08-16T00:21:57.190Z,3.07
2018-08-16T00:24:24.665Z,3.43
2018-08-16T00:26:52.151Z,3.00
2018-08-16T00:29:19.619Z,3.40
2018-08-16T00:31:47.175Z,3.57
2018-08-16T00:34:14.730Z,4.50
2018-08-16T00:36:42.238Z,3.57
2018-08-16T00:39:10.244Z,3.20
2018-08-16T00:41:37.813Z,3.00
2018-08-16T00:44:05.451Z,3.40
2018-08-16T00:46:33.008Z,3.90
2018-08-16T00:49:00.473Z,3.20
2018-08-16T00:51:27.974Z,3.53
2018-08-16T00:53:55.457Z,3.93
2018-08-16T00:56:22.965Z,3.30
2018-08-16T00:58:50.519Z,3.07
2018-08-16T01:01:18.084Z,3.03
2018-08-16T01:03:45.582Z,3.27
2018-08-16T01:06:13.050Z,3.87
2018-08-16T01:08:40.554Z,4.43
2018-08-16T01:11:08.042Z,4.07
2018-08-16T01:13:35.562Z,4.17
2018-08-16T01:16:03.133Z,3.73
2018-08-16T01:18:30.653Z,3.47
2018-08-16T01:20:58.166Z,3.30
2018-08-16T01:23:25.664Z,3.20
2018-08-16T01:25:53.169Z,3.20
2018-08-16T01:28:20.662Z,3.40
2018-08-16T01:30:48.221Z,4.37
2018-08-16T01:33:15.749Z,4.57
2018-08-16T01:35:43.333Z,4.20
2018-08-16T01:38:10.796Z,3.70
2018-08-16T01:40:38.273Z,3.00
2018-08-16T01:43:05.838Z,3.63
2018-08-16T01:45:33.363Z,3.63
2018-08-16T01:48:00.845Z,3.43
2018-08-16T01:50:28.354Z,3.27
2018-08-16T01:52:55.860Z,3.93
2018-08-16T01:55:23.385Z,3.27
2018-08-16T01:57:50.894Z,3.10
2018-08-16T02:00:18.447Z,3.20
2018-08-16T02:02:45.960Z,3.00
2018-08-16T02:05:13.551Z,3.33
2018-08-16T02:07:41.079Z,3.50
2018-08-16T02:10:09.365Z,3.27
2018-08-16T02:12:55.379Z,3.67
2018-08-16T02:15:22.876Z,3.57
2018-08-16T02:17:50.395Z,3.07
2018-08-16T02:20:17.878Z,3.50
2018-08-16T02:22:45.388Z,3.40
2018-08-16T02:25:12.876Z,3.37
2018-08-16T02:27:40.419Z,3.50
2018-08-16T02:30:08.901Z,3.50
2018-08-16T02:32:37.177Z,3.93
2018-08-16T02:35:04.743Z,3.63
2018-08-16T02:37:32.453Z,3.90
2018-08-16T02:39:59.973Z,4.03
2018-08-16T02:42:27.438Z,3.97
2018-08-16T02:44:55.056Z,3.70
2018-08-16T02:47:22.556Z,4.00
2018-08-16T02:49:50.011Z,4.00
2018-08-16T02:52:17.492Z,3.93
2018-08-16T02:54:45.005Z,3.57
2018-08-16T02:57:12.495Z,3.47
2018-08-16T02:59:39.991Z,5.50
2018-08-16T03:02:07.561Z,3.60
2018-08-16T03:04:35.158Z,3.90
2018-08-16T03:07:02.668Z,3.80
2018-08-16T03:09:30.145Z,3.90
2018-08-16T03:11:57.666Z,4.00
2018-08-16T03:14:25.179Z,4.30
2018-08-16T03:16:52.680Z,3.77
2018-08-16T03:19:20.174Z,4.50
2018-08-16T03:21:47.739Z,4.37
2018-08-16T03:24:15.447Z,4.00
2018-08-16T03:26:42.974Z,4.10
2018-08-16T03:29:10.525Z,4.30
2018-08-16T03:31:39.189Z,4.03
2018-08-16T03:34:06.706Z,3.83
2018-08-16T03:36:34.231Z,4.20
2018-08-16T03:39:01.709Z,3.90
2018-08-16T03:41:29.246Z,4.43
2018-08-16T03:43:56.767Z,4.80
2018-08-16T03:46:24.248Z,4.63
2018-08-16T03:48:52.018Z,4.77
2018-08-16T03:51:19.476Z,4.43
2018-08-16T03:53:46.969Z,4.40
2018-08-16T03:56:14.522Z,4.20
2018-08-16T03:58:41.996Z,4.40
2018-08-16T04:01:09.489Z,4.30
2018-08-16T04:03:36.966Z,3.80
2018-08-16T04:06:04.452Z,3.67
2018-08-16T04:08:31.913Z,4.47
2018-08-16T04:10:59.578Z,4.20
2018-08-16T04:13:27.112Z,4.60
2018-08-16T04:15:54.558Z,4.63
2018-08-16T04:18:22.027Z,4.30
2018-08-16T04:20:49.481Z,4.40
2018-08-16T04:23:17.026Z,4.10
2018-08-16T04:25:44.494Z,5.57
2018-08-16T04:28:11.964Z,4.60
2018-08-16T04:30:39.429Z,4.50
2018-08-16T04:33:07.394Z,4.60
2018-08-16T04:35:34.938Z,4.53
2018-08-16T04:38:02.365Z,5.53
2018-08-16T04:40:29.854Z,4.83
2018-08-16T04:42:57.399Z,5.37
2018-08-16T04:45:24.997Z,4.53
2018-08-16T04:47:52.465Z,4.53
2018-08-16T04:50:20.008Z,5.43
2018-08-16T04:52:50.561Z,5.70
2018-08-16T04:55:18.062Z,4.87
2018-08-16T04:57:45.560Z,5.23
2018-08-16T05:00:13.157Z,4.90
2018-08-16T05:02:40.678Z,5.03
2018-08-16T05:05:08.560Z,5.00
2018-08-16T05:07:36.357Z,5.50
2018-08-16T05:10:04.958Z,5.07
2018-08-16T05:12:32.475Z,5.10
2018-08-16T05:14:59.974Z,5.57
2018-08-16T05:17:27.491Z,6.07
2018-08-16T05:19:55.300Z,4.83
2018-08-16T05:22:22.837Z,5.00
2018-08-16T05:24:50.351Z,5.50
2018-08-16T05:27:17.896Z,5.20
2018-08-16T05:29:45.345Z,5.47
2018-08-16T05:32:12.910Z,4.87
2018-08-16T05:34:40.396Z,5.57
2018-08-16T05:37:07.973Z,5.33
2018-08-16T05:39:35.486Z,4.93
2018-08-16T05:42:02.979Z,5.40
2018-08-16T05:44:30.469Z,4.63
2018-08-16T05:46:57.991Z,4.63
2018-08-16T05:49:25.531Z,4.80
2018-08-16T05:51:53.049Z,5.33
2018-08-16T05:54:21.630Z,5.63
2018-08-16T05:56:49.192Z,5.67
2018-08-16T05:59:16.782Z,6.87
2018-08-16T06:01:44.463Z,7.33
2018-08-16T06:04:12.212Z,7.90
2018-08-16T06:06:39.705Z,6.97
2018-08-16T06:09:08.346Z,6.57
2018-08-16T06:11:36.064Z,7.30
2018-08-16T06:14:04.525Z,8.13
2018-08-16T06:16:32.154Z,7.50
2018-08-16T06:18:59.760Z,8.77
2018-08-16T06:21:27.541Z,8.40
2018-08-16T06:23:56.248Z,8.17
2018-08-16T06:26:23.840Z,8.27
2018-08-16T06:28:51.786Z,7.63
2018-08-16T06:31:19.403Z,7.47
2018-08-16T06:33:46.965Z,7.30
2018-08-16T06:36:14.630Z,7.77
2018-08-16T06:38:42.209Z,6.77
2018-08-16T06:41:09.745Z,8.10
2018-08-16T06:43:37.377Z,8.13
2018-08-16T06:46:04.931Z,7.73
2018-08-16T06:48:32.461Z,7.90
2018-08-16T06:50:59.986Z,7.50
2018-08-16T06:53:27.619Z,7.30
2018-08-16T06:55:55.140Z,8.10
2018-08-16T06:58:22.739Z,8.23
2018-08-16T07:00:50.247Z,5.90
2018-08-16T07:03:17.757Z,6.97
2018-08-16T07:05:45.397Z,8.37
2018-08-16T07:08:12.887Z,6.53
2018-08-16T07:10:40.542Z,6.47
2018-08-16T07:13:08.158Z,8.23
2018-08-16T07:15:35.723Z,8.43
2018-08-16T07:18:03.301Z,8.63
2018-08-16T07:20:30.794Z,7.80
2018-08-16T07:22:58.340Z,7.73
2018-08-16T07:25:25.888Z,7.93
2018-08-16T07:27:53.414Z,8.20
2018-08-16T07:30:20.955Z,9.30
2018-08-16T07:32:48.461Z,8.03
2018-08-16T07:35:16.010Z,9.30
2018-08-16T07:37:43.549Z,8.57
2018-08-16T07:40:11.140Z,8.70
2018-08-16T07:42:38.694Z,8.23
2018-08-16T07:45:08.552Z,8.43
2018-08-16T07:47:36.130Z,8.57
2018-08-16T07:50:05.165Z,8.80
2018-08-16T07:52:32.712Z,8.70
2018-08-16T07:55:00.217Z,8.40
2018-08-16T07:57:27.769Z,6.80
2018-08-16T07:59:55.290Z,7.87
2018-08-16T08:02:22.853Z,7.40
2018-08-16T08:04:50.363Z,6.57
2018-08-16T08:07:17.912Z,5.63
2018-08-16T08:09:45.416Z,7.30
2018-08-16T08:12:12.950Z,7.30
2018-08-16T08:14:40.455Z,8.27
2018-08-16T08:17:08.037Z,7.30
2018-08-16T08:19:35.586Z,6.07
2018-08-16T08:22:11.408Z,6.20
2018-08-16T08:24:38.924Z,6.30
2018-08-16T08:27:06.658Z,5.60
2018-08-16T08:29:34.152Z,6.87
2018-08-16T08:32:01.761Z,5.40
2018-08-16T08:34:29.272Z,6.50
2018-08-16T08:37:08.124Z,9.10
2018-08-16T08:39:35.605Z,6.87
2018-08-16T08:42:03.114Z,8.00
2018-08-16T08:44:30.648Z,7.13
2018-08-16T08:46:58.202Z,7.47
2018-08-16T08:49:25.750Z,8.33
2018-08-16T08:51:53.852Z,6.43
2018-08-16T08:54:44.180Z,6.57
2018-08-16T08:57:23.031Z,6.87
2018-08-16T08:59:50.560Z,8.17
2018-08-16T09:02:18.117Z,6.23
2018-08-16T09:04:45.706Z,5.83
2018-08-16T09:07:14.458Z,6.50
2018-08-16T09:10:50.966Z,7.30
2018-08-16T09:13:30.351Z,7.07
2018-08-16T09:15:58.993Z,8.00
2018-08-16T09:18:26.523Z,6.83
2018-08-16T09:20:54.059Z,5.83
2018-08-16T09:23:21.596Z,6.27
2018-08-16T09:25:49.095Z,6.37
2018-08-16T09:28:16.575Z,7.63
2018-08-16T09:30:55.685Z,4.90
2018-08-16T09:33:34.730Z,4.30
2018-08-16T09:36:02.296Z,4.40
2018-08-16T09:38:29.809Z,5.57
2018-08-16T09:40:57.302Z,5.40
2018-08-16T09:43:24.785Z,6.00
2018-08-16T09:47:05.737Z,5.00
2018-08-16T09:49:35.344Z,5.67
2018-08-16T09:52:03.341Z,5.80
2018-08-16T09:54:30.926Z,4.87
2018-08-16T09:56:59.747Z,5.50
2018-08-16T09:59:27.289Z,5.83
2018-08-16T10:01:54.799Z,4.70
2018-08-16T10:04:22.319Z,4.60
2018-08-16T10:06:49.893Z,5.13
2018-08-16T10:09:18.771Z,3.93
2018-08-16T10:11:46.955Z,4.40
2018-08-16T10:14:14.721Z,4.97
2018-08-16T10:16:42.326Z,4.70
2018-08-16T10:19:09.843Z,3.70
2018-08-16T10:21:37.364Z,3.07
2018-08-16T10:24:05.746Z,3.93
2018-08-16T10:26:33.466Z,3.60
2018-08-16T10:29:02.288Z,3.43
2018-08-16T10:31:29.806Z,3.60
2018-08-16T10:33:57.355Z,3.60
2018-08-16T10:36:24.976Z,3.53
2018-08-16T10:38:52.478Z,4.60
2018-08-16T10:41:20.046Z,4.67
2018-08-16T10:43:47.540Z,4.10
2018-08-16T10:46:15.077Z,4.43
2018-08-16T10:48:42.571Z,3.30
2018-08-16T10:51:10.244Z,3.33
2018-08-16T10:53:37.741Z,4.57
2018-08-16T10:56:05.362Z,4.83
2018-08-16T10:58:32.902Z,5.70
2018-08-16T11:01:00.466Z,3.90
2018-08-16T11:03:28.127Z,3.83
2018-08-16T11:05:55.831Z,4.13
2018-08-16T11:08:24.033Z,4.43
2018-08-16T11:10:51.567Z,4.57
2018-08-16T11:13:19.093Z,3.70
2018-08-16T11:15:46.593Z,3.37
2018-08-16T11:18:14.290Z,3.70
2018-08-16T11:20:41.820Z,3.23
2018-08-16T11:23:09.705Z,3.40
2018-08-16T11:25:37.210Z,3.90
2018-08-16T11:28:05.295Z,3.00
2018-08-16T11:30:32.821Z,2.80
2018-08-16T11:33:00.338Z,3.30
2018-08-16T11:35:27.851Z,3.20
2018-08-16T11:37:55.392Z,2.80
2018-08-16T11:40:22.850Z,3.30
2018-08-16T11:42:50.314Z,2.80
2018-08-16T11:45:17.824Z,4.47
2018-08-16T11:47:45.325Z,3.67
2018-08-16T11:50:12.823Z,2.73
2018-08-16T11:52:40.328Z,3.27
2018-08-16T11:55:07.890Z,3.20
2018-08-16T11:57:35.402Z,2.70
2018-08-16T12:00:03.128Z,2.70
2018-08-16T12:02:30.621Z,2.47
2018-08-16T12:04:58.103Z,2.80
2018-08-16T12:07:25.608Z,2.80
2018-08-16T12:09:53.117Z,3.23
2018-08-16T12:12:20.612Z,2.77
2018-08-16T12:14:48.201Z,3.20
2018-08-16T12:17:15.609Z,4.40
2018-08-16T12:19:43.095Z,2.97
2018-08-16T12:22:10.620Z,2.50
2018-08-16T12:24:38.173Z,2.80
2018-08-16T12:27:05.703Z,2.60
2018-08-16T12:29:33.215Z,2.83
2018-08-16T12:32:00.705Z,3.00
2018-08-16T12:34:28.202Z,3.33
2018-08-16T12:36:55.695Z,2.70
2018-08-16T12:39:23.160Z,3.07
2018-08-16T12:41:52.362Z,2.57
2018-08-16T12:44:18.132Z,3.00
2018-08-16T12:46:45.740Z,2.70
2018-08-16T12:49:13.259Z,2.90
2018-08-16T12:51:40.807Z,2.63
2018-08-16T12:54:08.336Z,2.63
2018-08-16T12:56:35.903Z,3.40
2018-08-16T12:59:05.218Z,2.67
2018-08-16T13:01:32.723Z,3.43
2018-08-16T13:04:00.222Z,2.90
2018-08-16T13:06:27.710Z,2.90
2018-08-16T13:08:55.257Z,2.97
2018-08-16T13:11:22.758Z,2.70
2018-08-16T13:13:50.266Z,2.93
2018-08-16T13:16:17.769Z,3.03
2018-08-16T13:18:45.537Z,3.07
2018-08-16T13:21:13.019Z,3.20
2018-08-16T13:23:40.480Z,3.17
2018-08-16T13:26:08.001Z,2.90
2018-08-16T13:28:35.514Z,2.67
2018-08-16T13:31:03.108Z,3.00
2018-08-16T13:33:30.856Z,3.17
2018-08-16T13:35:58.334Z,3.93
2018-08-16T13:38:25.797Z,3.30
2018-08-16T13:40:53.344Z,3.10
2018-08-16T13:43:20.922Z,3.27
2018-08-16T13:45:48.467Z,2.80
2018-08-16T13:48:16.001Z,3.87
2018-08-16T13:50:43.522Z,3.40
2018-08-16T13:53:11.000Z,3.27
2018-08-16T13:55:38.548Z,3.73
2018-08-16T13:58:06.044Z,3.50
2018-08-16T14:00:33.552Z,3.10
2018-08-16T14:03:01.028Z,3.17
2018-08-16T14:05:35.461Z,3.20
2018-08-16T14:08:03.165Z,3.23
2018-08-16T14:10:30.636Z,3.30
2018-08-16T14:12:58.137Z,3.47
2018-08-16T14:15:25.791Z,3.50
2018-08-16T14:17:53.444Z,3.13
2018-08-16T14:20:21.141Z,3.30
2018-08-16T14:22:48.826Z,4.20
2018-08-16T14:25:16.410Z,3.10
2018-08-16T14:27:44.312Z,3.27
2018-08-16T14:30:12.006Z,3.03
2018-08-16T14:32:39.495Z,3.30
2018-08-16T14:35:07.049Z,3.33
2018-08-16T14:37:34.710Z,3.27
2018-08-16T14:40:02.335Z,3.50
2018-08-16T14:42:30.047Z,3.27
2018-08-16T14:44:57.741Z,2.83
2018-08-16T14:47:25.315Z,2.90
2018-08-16T14:49:53.092Z,4.00
2018-08-16T14:52:20.834Z,3.93
2018-08-16T14:54:48.329Z,3.30
2018-08-16T14:57:15.825Z,3.40
2018-08-16T14:59:43.531Z,4.30
2018-08-16T15:02:11.079Z,4.40
2018-08-16T15:04:38.586Z,3.00
2018-08-16T15:07:07.405Z,3.30
2018-08-16T15:09:35.084Z,4.13
2018-08-16T15:12:02.612Z,3.07
2018-08-16T15:14:30.305Z,3.93
2018-08-16T15:16:57.866Z,3.50
2018-08-16T15:22:27.793Z,3.37
2018-08-16T15:24:55.006Z,3.23
2018-08-16T15:27:22.176Z,3.40
2018-08-16T15:29:49.428Z,3.20
2018-08-16T15:32:16.962Z,3.00
2018-08-16T15:34:44.047Z,4.00
2018-08-16T15:37:11.232Z,4.13
2018-08-16T15:39:38.392Z,3.53
2018-08-16T15:42:05.621Z,3.17
2018-08-16T15:44:32.797Z,3.23
2018-08-16T15:47:00.024Z,3.17
2018-08-16T15:49:27.177Z,3.70
2018-08-16T15:51:54.380Z,3.10
2018-08-16T15:54:21.540Z,3.20
2018-08-16T15:56:48.892Z,3.40
2018-08-16T15:59:16.138Z,3.00
2018-08-16T16:01:43.297Z,3.43
2018-08-16T16:04:10.457Z,3.03
2018-08-16T16:06:37.713Z,2.90
2018-08-16T16:09:06.653Z,20.43
2018-08-16T16:11:33.836Z,11.93
2018-08-16T16:14:01.046Z,4.20
2018-08-16T16:16:28.208Z,3.53
2018-08-16T16:18:55.360Z,3.50
2018-08-16T16:21:22.544Z,4.77
2018-08-16T16:23:49.729Z,3.70
2018-08-16T16:26:16.937Z,3.20
2018-08-16T16:28:44.274Z,3.40
2018-08-16T16:31:11.464Z,3.17
2018-08-16T16:33:38.643Z,4.23
2018-08-16T16:36:05.892Z,3.60
2018-08-16T16:38:33.052Z,3.60
2018-08-16T16:41:00.229Z,3.37
2018-08-16T16:43:27.512Z,3.40
2018-08-16T16:45:54.701Z,3.43
2018-08-16T16:48:21.904Z,4.03
2018-08-16T16:50:49.141Z,3.20
2018-08-16T16:53:16.305Z,3.50
2018-08-16T16:55:43.476Z,4.00
2018-08-16T16:58:10.652Z,3.30
2018-08-16T17:00:37.845Z,3.20
2018-08-16T17:03:05.273Z,3.97
2018-08-16T17:05:32.457Z,3.10
2018-08-16T17:07:59.763Z,3.50
2018-08-16T17:10:26.987Z,3.00
2018-08-16T17:12:54.181Z,3.40
2018-08-16T17:15:21.421Z,3.30
2018-08-16T17:17:48.601Z,3.37
2018-08-16T17:20:15.793Z,3.50
2018-08-16T17:22:42.973Z,3.53
2018-08-16T17:25:10.140Z,3.20
2018-08-16T17:27:37.325Z,3.40
2018-08-16T17:30:04.905Z,3.27
2018-08-16T17:32:32.094Z,4.60
2018-08-16T17:34:59.295Z,6.17
2018-08-16T17:37:26.468Z,30.23
2018-08-16T17:39:53.646Z,171.93
2018-08-16T17:42:20.813Z,131.50
2018-08-16T17:44:48.001Z,95.87
2018-08-16T17:47:15.194Z,54.77
2018-08-16T17:49:42.413Z,35.43
2018-08-16T17:52:09.652Z,27.47
2018-08-16T17:54:36.905Z,22.70
2018-08-16T17:57:04.733Z,11.80
2018-08-16T17:59:31.899Z,8.80
2018-08-16T18:01:59.201Z,6.13
2018-08-16T18:04:26.372Z,5.30
2018-08-16T18:06:53.658Z,4.57
2018-08-16T18:09:27.520Z,4.47
2018-08-16T18:11:54.709Z,3.73
2018-08-16T18:14:21.900Z,3.77
2018-08-16T18:16:49.073Z,3.50
2018-08-16T18:19:16.301Z,3.40
2018-08-16T18:21:43.573Z,2.90
2018-08-16T18:24:10.828Z,3.23
2018-08-16T18:26:37.985Z,3.10
2018-08-16T18:29:05.272Z,3.67
2018-08-16T18:31:32.442Z,3.60
2018-08-16T18:33:59.644Z,3.47
2018-08-16T18:36:26.801Z,4.17
2018-08-16T18:38:53.965Z,3.60
2018-08-16T18:41:21.144Z,3.67
2018-08-16T18:43:48.520Z,3.67
2018-08-16T18:46:15.681Z,4.20
2018-08-16T18:48:42.842Z,3.63
2018-08-16T18:51:10.026Z,5.27
2018-08-16T18:53:37.201Z,3.80
2018-08-16T18:56:04.403Z,3.67
2018-08-16T18:58:31.580Z,3.63
2018-08-16T19:00:58.778Z,4.10
2018-08-16T19:03:25.976Z,3.80
2018-08-16T19:05:53.163Z,4.00
2018-08-16T19:08:20.436Z,4.33
2018-08-16T19:10:47.615Z,5.00
2018-08-16T19:13:14.890Z,4.53
2018-08-16T19:15:42.160Z,3.90
2018-08-16T19:18:09.371Z,4.10
2018-08-16T19:20:36.548Z,4.13
2018-08-16T19:23:03.905Z,4.33
2018-08-16T19:25:31.189Z,4.33
2018-08-16T19:27:58.353Z,4.03
2018-08-16T19:30:25.553Z,3.87
2018-08-16T19:32:52.761Z,3.80
2018-08-16T19:35:19.949Z,4.13
2018-08-16T19:37:47.151Z,4.43
2018-08-16T19:40:14.337Z,4.43
2018-08-16T19:42:41.501Z,4.03
2018-08-16T19:45:08.819Z,4.20
2018-08-16T19:47:36.185Z,4.33
2018-08-16T19:50:04.186Z,3.90
2018-08-16T19:52:31.366Z,4.20
2018-08-16T19:54:58.532Z,4.03
2018-08-16T19:57:25.806Z,4.77
2018-08-16T19:59:52.952Z,4.47
2018-08-16T20:02:20.197Z,4.67
2018-08-16T20:04:47.377Z,4.30
2018-08-16T20:07:14.544Z,4.50
2018-08-16T20:09:41.860Z,3.87
2018-08-16T20:12:09.056Z,4.40
2018-08-16T20:14:36.241Z,4.17
2018-08-16T20:17:03.572Z,3.87
2018-08-16T20:19:30.903Z,3.97
2018-08-16T20:21:57.993Z,4.53
2018-08-16T20:24:25.193Z,4.30
2018-08-16T20:26:52.369Z,4.17
2018-08-16T20:29:19.554Z,3.57
2018-08-16T20:31:46.849Z,3.70
2018-08-16T20:34:14.021Z,3.90
2018-08-16T20:36:41.197Z,4.30
2018-08-16T20:39:08.561Z,4.23
2018-08-16T20:41:35.733Z,4.40
2018-08-16T20:44:02.959Z,4.80
2018-08-16T20:46:30.129Z,4.57
2018-08-16T20:48:57.405Z,4.27
2018-08-16T20:51:24.624Z,4.20
2018-08-16T20:53:52.038Z,4.20
2018-08-16T20:56:19.225Z,4.10
2018-08-16T20:58:46.489Z,4.20
2018-08-16T21:01:13.649Z,3.93
2018-08-16T21:03:40.982Z,7.53
2018-08-16T21:06:08.180Z,4.00
2018-08-16T21:08:35.401Z,4.03
2018-08-16T21:11:02.725Z,4.10
2018-08-16T21:13:29.900Z,4.43
2018-08-16T21:15:57.168Z,3.70
2018-08-16T21:18:31.053Z,4.57
2018-08-16T21:20:58.355Z,4.07
2018-08-16T21:23:25.452Z,3.90
2018-08-16T21:25:52.634Z,4.40
2018-08-16T21:28:19.808Z,4.20
2018-08-16T21:30:47.013Z,4.07
2018-08-16T21:33:14.181Z,3.97
2018-08-16T21:35:41.408Z,3.93
2018-08-16T21:38:08.609Z,4.20
2018-08-16T21:40:35.793Z,3.90
2018-08-16T21:43:02.985Z,4.30
2018-08-16T21:45:30.145Z,3.93
2018-08-16T21:47:57.426Z,4.73
2018-08-16T21:50:24.685Z,4.20
2018-08-16T21:52:51.845Z,4.00
2018-08-16T21:55:19.013Z,4.23
2018-08-16T21:57:46.170Z,4.63
2018-08-16T22:00:24.993Z,4.37
2018-08-16T22:02:52.157Z,4.60
2018-08-16T22:05:19.333Z,4.40
2018-08-16T22:08:05.374Z,5.90
2018-08-16T22:10:32.836Z,4.47
2018-08-16T22:13:00.192Z,4.30
2018-08-16T22:15:27.637Z,4.50
2018-08-16T22:17:54.828Z,4.00
2018-08-16T22:20:22.105Z,4.83
2018-08-16T22:22:49.280Z,4.67
2018-08-16T22:25:16.473Z,4.70
2018-08-16T22:27:43.711Z,4.77
2018-08-16T22:30:10.925Z,4.53
2018-08-16T22:32:38.085Z,4.93
2018-08-16T22:35:05.664Z,4.60
2018-08-16T22:37:32.945Z,4.60
2018-08-16T22:40:00.126Z,4.50
2018-08-16T22:42:27.281Z,4.73
2018-08-16T22:44:54.448Z,4.93
2018-08-16T22:47:21.604Z,4.83
2018-08-16T22:49:48.893Z,4.40
2018-08-16T22:52:16.064Z,4.87
2018-08-16T22:54:43.257Z,4.40
2018-08-16T22:57:10.485Z,4.40
2018-08-16T22:59:37.701Z,4.70
2018-08-16T23:02:04.893Z,4.70
2018-08-16T23:04:32.073Z,4.37
2018-08-16T23:06:59.230Z,4.50
2018-08-16T23:09:26.429Z,4.30
2018-08-16T23:11:53.624Z,4.20
2018-08-16T23:14:20.796Z,4.00
2018-08-16T23:16:47.997Z,4.33
2018-08-16T23:19:15.205Z,4.33
2018-08-16T23:21:42.372Z,4.17
2018-08-16T23:24:09.546Z,3.90
2018-08-16T23:26:36.741Z,4.13
2018-08-16T23:29:04.664Z,4.17
2018-08-16T23:31:31.857Z,3.90
2018-08-16T23:33:59.021Z,4.30
2018-08-16T23:36:26.204Z,4.67
2018-08-16T23:38:53.361Z,4.60
2018-08-16T23:41:20.533Z,5.30
2018-08-16T23:43:47.705Z,4.27
2018-08-16T23:46:14.913Z,4.60
2018-08-16T23:48:42.148Z,4.90
2018-08-16T23:51:09.312Z,4.70
2018-08-16T23:53:36.536Z,4.63
2018-08-16T23:56:03.734Z,4.10
2018-08-16T23:58:30.891Z,4.83
